createdAt,value
2023-02-06T00:01:05.066Z,6.55
2023-02-06T00:06:07.165Z,6.42
2023-02-06T00:11:11.426Z,6.41
2023-02-06T00:16:16.829Z,6.59
2023-02-06T00:21:19.106Z,6.54
2023-02-06T00:26:21.162Z,6.53
2023-02-06T00:31:22.653Z,6.47
2023-02-06T00:36:24.159Z,6.49
2023-02-06T00:41:25.566Z,6.58
2023-02-06T00:46:27.113Z,6.59
2023-02-06T00:51:28.863Z,6.48
2023-02-06T00:56:30.311Z,6.55
2023-02-06T01:01:31.933Z,6.45
2023-02-06T01:06:33.420Z,6.46
2023-02-06T01:11:35.519Z,6.43
2023-02-06T01:16:36.966Z,6.46
2023-02-06T01:21:38.741Z,6.47
2023-02-06T01:26:40.232Z,6.33
2023-02-06T01:31:41.720Z,6.31
2023-02-06T01:36:43.287Z,6.35
2023-02-06T01:41:44.785Z,6.36
2023-02-06T01:46:48.581Z,6.32
2023-02-06T01:51:55.582Z,6.26
2023-02-06T01:57:02.106Z,6.20
2023-02-06T02:02:04.070Z,6.24
2023-02-06T02:07:25.177Z,6.37
2023-02-06T02:12:26.679Z,6.35
2023-02-06T02:17:28.086Z,6.30
2023-02-06T02:22:41.428Z,6.35
2023-02-06T02:28:04.481Z,6.16
2023-02-06T02:33:24.477Z,6.17
2023-02-06T02:38:45.370Z,6.23
2023-02-06T02:44:02.130Z,6.23
2023-02-06T02:49:19.610Z,6.28
2023-02-06T02:54:21.242Z,6.17
2023-02-06T02:59:28.756Z,6.22
2023-02-06T03:04:52.705Z,6.14
2023-02-06T03:10:27.220Z,6.17
2023-02-06T03:15:40.402Z,6.10
2023-02-06T03:20:46.135Z,6.08
2023-02-06T03:25:49.694Z,6.14
2023-02-06T03:30:56.661Z,6.08
2023-02-06T03:35:58.248Z,6.00
2023-02-06T03:41:01.292Z,6.04
2023-02-06T03:46:06.325Z,6.01
2023-02-06T03:51:13.111Z,5.85
2023-02-06T03:56:24.258Z,5.88
2023-02-06T04:01:26.096Z,5.81
2023-02-06T04:06:27.542Z,5.80
2023-02-06T04:11:28.978Z,5.85
2023-02-06T04:16:30.564Z,5.86
2023-02-06T04:21:32.060Z,5.83
2023-02-06T04:26:33.652Z,5.83
2023-02-06T04:31:35.104Z,5.86
2023-02-06T04:36:36.632Z,5.79
2023-02-06T04:41:38.139Z,5.71
2023-02-06T04:46:39.680Z,5.36
2023-02-06T04:51:42.025Z,5.26
2023-02-06T04:56:44.778Z,5.17
2023-02-06T05:01:46.274Z,5.00
2023-02-06T05:06:47.692Z,4.98
2023-02-06T05:11:49.168Z,5.03
2023-02-06T05:16:50.651Z,5.00
2023-02-06T05:21:52.084Z,4.84
2023-02-06T05:26:53.567Z,4.93
2023-02-06T05:31:55.045Z,4.91
2023-02-06T05:36:56.646Z,4.81
2023-02-06T05:41:58.139Z,4.59
2023-02-06T05:46:59.638Z,4.62
2023-02-06T05:52:01.043Z,4.48
2023-02-06T05:57:02.622Z,4.22
2023-02-06T06:02:04.613Z,4.14
2023-02-06T06:07:06.015Z,4.10
2023-02-06T06:12:07.690Z,4.02
2023-02-06T06:17:09.252Z,3.91
2023-02-06T06:22:10.669Z,3.90
2023-02-06T06:27:12.075Z,3.80
2023-02-06T06:32:13.659Z,3.77
2023-02-06T06:37:15.226Z,3.62
2023-02-06T06:42:16.746Z,3.64
2023-02-06T06:47:18.348Z,3.71
2023-02-06T06:52:25.341Z,3.64
2023-02-06T06:57:30.729Z,3.44
2023-02-06T07:02:32.300Z,3.34
2023-02-06T07:07:34.105Z,3.31
2023-02-06T07:12:36.018Z,3.19
2023-02-06T07:17:37.574Z,3.26
2023-02-06T07:22:39.241Z,3.18
2023-02-06T07:27:40.695Z,3.23
2023-02-06T07:32:42.242Z,3.48
2023-02-06T07:37:43.708Z,3.46
2023-02-06T07:42:45.180Z,3.47
2023-02-06T07:47:46.797Z,3.38
2023-02-06T07:52:48.358Z,3.73
2023-02-06T07:57:49.767Z,3.71
2023-02-06T08:02:51.590Z,4.00
2023-02-06T08:07:53.284Z,4.11
2023-02-06T08:12:54.751Z,4.25
2023-02-06T08:17:56.257Z,4.35
2023-02-06T08:22:57.794Z,4.54
2023-02-06T08:27:59.316Z,4.53
2023-02-06T08:33:00.745Z,4.68
2023-02-06T08:38:02.321Z,4.80
2023-02-06T08:43:03.931Z,5.12
2023-02-06T08:48:05.512Z,4.88
2023-02-06T08:53:07.005Z,4.99
2023-02-06T08:58:08.776Z,4.80
2023-02-06T09:03:10.250Z,4.83
2023-02-06T09:08:11.769Z,4.73
2023-02-06T09:13:13.209Z,4.91
2023-02-06T09:18:14.919Z,4.93
2023-02-06T09:23:17.273Z,4.88
2023-02-06T09:28:18.781Z,4.87
2023-02-06T09:33:20.288Z,5.03
2023-02-06T09:38:21.758Z,5.17
2023-02-06T09:43:23.775Z,5.16
2023-02-06T09:48:28.526Z,5.61
2023-02-06T09:53:37.589Z,5.71
2023-02-06T09:59:07.267Z,6.10
2023-02-06T10:04:20.698Z,6.18
2023-02-06T10:09:34.225Z,6.25
2023-02-06T10:14:45.052Z,6.38
2023-02-06T10:20:10.577Z,6.59
2023-02-06T10:25:28.452Z,6.57
2023-02-06T10:30:58.990Z,6.60
2023-02-06T10:36:19.566Z,6.22
2023-02-06T10:41:35.604Z,6.19
2023-02-06T10:46:42.531Z,6.37
2023-02-06T10:51:47.300Z,6.49
2023-02-06T10:56:50.839Z,6.64
2023-02-06T11:02:03.943Z,6.84
2023-02-06T11:07:14.374Z,6.50
2023-02-06T11:12:44.221Z,6.48
2023-02-06T11:17:46.091Z,6.83
2023-02-06T11:22:53.114Z,6.57
2023-02-06T11:27:57.739Z,5.45
2023-02-06T11:33:08.985Z,6.26
2023-02-06T11:38:19.954Z,6.13
2023-02-06T11:43:33.011Z,6.32
2023-02-06T11:48:41.033Z,6.40
2023-02-06T11:54:03.301Z,6.21
2023-02-06T11:59:18.960Z,6.26
2023-02-06T12:04:31.230Z,6.25
2023-02-06T12:09:32.847Z,6.50
2023-02-06T12:14:39.618Z,6.25
2023-02-06T12:19:58.548Z,6.36
2023-02-06T12:25:03.809Z,6.09
2023-02-06T12:30:23.709Z,6.32
2023-02-06T12:35:41.304Z,6.31
2023-02-06T12:41:37.073Z,6.23
2023-02-06T12:46:41.190Z,6.55
2023-02-06T12:51:55.545Z,6.47
2023-02-06T12:57:16.192Z,6.39
2023-02-06T13:02:48.558Z,6.38
2023-02-06T13:07:51.514Z,6.69
2023-02-06T13:12:57.959Z,6.79
2023-02-06T13:17:59.463Z,6.66
2023-02-06T13:23:13.382Z,6.56
2023-02-06T13:28:21.001Z,6.93
2023-02-06T13:33:25.093Z,6.78
2023-02-06T13:38:36.637Z,6.83
2023-02-06T13:43:40.974Z,6.69
2023-02-06T13:48:57.442Z,6.61
2023-02-06T13:54:29.693Z,6.68
2023-02-06T13:59:37.261Z,6.70
2023-02-06T14:04:40.104Z,6.67
2023-02-06T14:09:57.147Z,6.81
2023-02-06T14:15:10.846Z,6.84
2023-02-06T14:20:44.327Z,6.84
2023-02-06T14:25:56.185Z,6.90
2023-02-06T14:31:15.918Z,6.77
2023-02-06T14:36:35.963Z,6.74
2023-02-06T14:41:37.923Z,6.62
2023-02-06T14:46:41.239Z,6.68
2023-02-06T14:51:43.167Z,6.59
2023-02-06T14:56:44.721Z,6.51
2023-02-06T15:01:49.450Z,6.64
2023-02-06T15:06:52.189Z,6.63
2023-02-06T15:11:56.557Z,6.56
2023-02-06T15:16:59.083Z,6.64
2023-02-06T15:22:11.796Z,6.71
2023-02-06T15:27:34.280Z,6.79
2023-02-06T15:32:39.567Z,6.70
2023-02-06T15:37:40.974Z,6.67
2023-02-06T15:42:42.833Z,6.86
2023-02-06T15:47:44.678Z,6.70
2023-02-06T15:52:46.333Z,6.66
2023-02-06T15:57:49.192Z,6.62
2023-02-06T16:02:51.611Z,6.49
2023-02-06T16:07:53.478Z,6.55
2023-02-06T16:12:56.680Z,6.59
2023-02-06T16:18:00.485Z,6.52
2023-02-06T16:23:22.193Z,6.44
2023-02-06T16:28:26.979Z,6.44
2023-02-06T16:33:37.896Z,6.45
2023-02-06T16:38:43.125Z,6.55
2023-02-06T16:43:46.056Z,6.01
2023-02-06T16:48:47.732Z,5.83
2023-02-06T16:53:50.344Z,5.57
2023-02-06T16:58:52.002Z,5.42
2023-02-06T17:03:54.071Z,5.77
2023-02-06T17:09:01.956Z,5.55
2023-02-06T17:14:03.707Z,5.45
2023-02-06T17:19:05.286Z,5.41
2023-02-06T17:24:07.058Z,5.41
2023-02-06T17:29:12.800Z,5.28
2023-02-06T17:34:14.375Z,5.14
2023-02-06T17:39:15.797Z,5.00
2023-02-06T17:44:17.781Z,4.96
2023-02-06T17:49:19.378Z,4.93
2023-02-06T17:54:20.854Z,4.89
2023-02-06T17:59:22.352Z,4.80
2023-02-06T18:04:23.984Z,4.68
2023-02-06T18:09:25.436Z,4.69
2023-02-06T18:14:26.925Z,4.47
2023-02-06T18:19:28.549Z,4.32
2023-02-06T18:24:30.094Z,4.17
2023-02-06T18:29:48.950Z,4.15
2023-02-06T18:34:51.417Z,4.00
2023-02-06T18:39:53.237Z,3.91
2023-02-06T18:44:54.642Z,3.83
2023-02-06T18:49:56.289Z,3.73
2023-02-06T18:54:57.786Z,3.55
2023-02-06T18:59:59.223Z,3.54
2023-02-06T19:05:00.818Z,3.23
2023-02-06T19:10:04.801Z,3.32
2023-02-06T19:15:06.713Z,3.36
2023-02-06T19:20:09.219Z,3.25
2023-02-06T19:25:14.212Z,3.17
2023-02-06T19:30:16.102Z,2.95
2023-02-06T19:35:17.680Z,3.15
2023-02-06T19:40:19.249Z,2.94
2023-02-06T19:45:20.737Z,2.71
2023-02-06T19:50:22.382Z,2.81
2023-02-06T19:55:23.822Z,2.75
2023-02-06T20:00:25.356Z,2.95
2023-02-06T20:05:27.340Z,2.66
2023-02-06T20:10:29.186Z,2.51
2023-02-06T20:15:30.676Z,2.50
2023-02-06T20:20:36.031Z,2.40
2023-02-06T20:25:38.019Z,2.46
2023-02-06T20:30:39.983Z,2.46
2023-02-06T20:35:45.362Z,2.42
2023-02-06T20:40:51.219Z,2.52
2023-02-06T20:45:52.806Z,2.27
2023-02-06T20:51:02.048Z,2.32
2023-02-06T20:56:03.679Z,2.11
2023-02-06T21:01:16.933Z,2.19
2023-02-06T21:06:18.514Z,2.10
2023-02-06T21:11:20.221Z,1.91
2023-02-06T21:16:21.655Z,2.29
2023-02-06T21:21:24.158Z,2.15
2023-02-06T21:26:26.854Z,2.14
2023-02-06T21:31:31.071Z,2.27
2023-02-06T21:36:34.518Z,1.97
2023-02-06T21:41:36.608Z,2.09
2023-02-06T21:46:38.246Z,2.08
2023-02-06T21:51:39.754Z,1.92
2023-02-06T21:56:41.260Z,1.95
2023-02-06T22:01:43.240Z,1.81
2023-02-06T22:06:44.708Z,1.84
2023-02-06T22:11:46.620Z,1.92
2023-02-06T22:16:48.181Z,1.78
2023-02-06T22:21:49.724Z,1.90
2023-02-06T22:26:51.283Z,1.83
2023-02-06T22:31:52.729Z,1.88
2023-02-06T22:36:54.200Z,1.97
2023-02-06T22:41:55.636Z,1.51
2023-02-06T22:46:57.259Z,1.83
2023-02-06T22:51:58.851Z,1.82
2023-02-06T22:57:00.391Z,1.75
2023-02-06T23:02:02.130Z,2.07
2023-02-06T23:07:04.597Z,1.93
2023-02-06T23:12:06.533Z,1.98
2023-02-06T23:17:08.088Z,2.19
2023-02-06T23:22:09.690Z,2.18
2023-02-06T23:27:11.242Z,2.12
2023-02-06T23:32:12.705Z,2.19
2023-02-06T23:37:14.143Z,2.24
2023-02-06T23:42:15.629Z,2.44
2023-02-06T23:47:17.099Z,2.50
2023-02-06T23:52:18.699Z,2.52
2023-02-06T23:57:20.121Z,2.46
